YHID Airport Information

Runway Information
Runway 08 Length 4557 ft width 98 ft
Elevation 12 ft Threshold ft Heading 85
Runway 26 Length 4557 ft Width 98 ft
Elevation 23 ft Threshold 459 ft Heading 265
Runway 14 Length 4052 ft width 75 ft
Elevation 8 ft Threshold ft Heading 140
Runway 32 Length 4052 ft Width 75 ft
Elevation 43 ft Threshold ft Heading 320
Airport Frequencies
Type CTAF Name CTAF Frequency 126.5 MHZ
Type FSS Name BRISBANE C Frequency 120.3 MHZ
Airport Navaids
Type NDB Name Horn Island Frequency 356 KHZ
Airport Weather Information & NOTAM
ADDS - METARS form results

(2255 UTC 01 December 2022)
Data provider http://aviationweather.gov/metar/data/
 
METAR text: YHID 012230Z AUTO 33016KT 9999 // SCT011 BKN019 OVC024 27/25 Q1006 RERA
Conditions at: YHID (HORN ISLAND , AU) observed 2230 UTC 01 December 2022
Temperature: 27.0°C (81°F)
Dewpoint: 25.0°C (77°F) [RH = 89%]
Pressure (altimeter): 29.70 inches Hg (1006.0 mb)
Winds: from the NNW (330 degrees) at 18 MPH (16 knots; 8.2 m/s)
Visibility: 6 or more miles (10+ km)
Ceiling: 1900 feet AGL
Clouds: scattered clouds at 1100 feet AGL
broken clouds at 1900 feet AGL
overcast cloud deck at 2400 feet AGL
Weather: no significant weather observed at this time

METAR text: YHID 012223Z AUTO 33017KT 9999 // SCT009 SCT013 OVC017 26/25 Q1005 RERA
Conditions at: YHID (HORN ISLAND , AU) observed 2223 UTC 01 December 2022
Temperature: 26.0°C (79°F)
Dewpoint: 25.0°C (77°F) [RH = 94%]
Pressure (altimeter): 29.68 inches Hg (1005.0 mb)
Winds: from the NNW (330 degrees) at 20 MPH (17 knots; 8.7 m/s)
Visibility: 6 or more miles (10+ km)
Ceiling: 1700 feet AGL
Clouds: scattered clouds at 900 feet AGL
scattered clouds at 1300 feet AGL
overcast cloud deck at 1700 feet AGL
Weather: no significant weather observed at this time

METAR text: YHID 012216Z AUTO 31004KT 270V340 9999 -RA SCT009 BKN011 OVC017 25/25 Q1005 RERA
Conditions at: YHID (HORN ISLAND , AU) observed 2216 UTC 01 December 2022
Temperature: 25.0°C (77°F)
Dewpoint: 25.0°C (77°F) [RH = 100%]
Pressure (altimeter): 29.68 inches Hg (1005.0 mb)
Winds: from the NW (310 degrees) at 5 MPH (4 knots; 2.1 m/s)
Visibility: 6 or more miles (10+ km)
Ceiling: 1100 feet AGL
Clouds: scattered clouds at 900 feet AGL
broken clouds at 1100 feet AGL
overcast cloud deck at 1700 feet AGL
Weather: -RA  (light rain)

METAR text: YHID 012206Z AUTO 24006KT 5000 RA SCT009 OVC013 24/24 Q1005
Conditions at: YHID (HORN ISLAND , AU) observed 2206 UTC 01 December 2022
Temperature: 24.0°C (75°F)
Dewpoint: 24.0°C (75°F) [RH = 100%]
Pressure (altimeter): 29.68 inches Hg (1005.0 mb)
Winds: from the WSW (240 degrees) at 7 MPH (6 knots; 3.1 m/s)
Visibility: 3 miles ( 5 km)
Ceiling: 1300 feet AGL
Clouds: scattered clouds at 900 feet AGL
overcast cloud deck at 1300 feet AGL
Weather: RA  (moderate rain)

METAR text: YHID 012200Z AUTO 23006KT 2600 RA SCT006 BKN009 OVC015 24/24 Q1005
Conditions at: YHID (HORN ISLAND , AU) observed 2200 UTC 01 December 2022
Temperature: 24.0°C (75°F)
Dewpoint: 24.0°C (75°F) [RH = 100%]
Pressure (altimeter): 29.68 inches Hg (1005.0 mb)
Winds: from the SW (230 degrees) at 7 MPH (6 knots; 3.1 m/s)
Visibility: 1.62 miles (2.61 km)
Ceiling: 900 feet AGL
Clouds: scattered clouds at 600 feet AGL
broken clouds at 900 feet AGL
overcast cloud deck at 1500 feet AGL
Weather: RA  (moderate rain)

METAR text: YHID 012159Z AUTO 23005KT 2600 RA SCT006 BKN011 OVC017 24/24 Q1005
Conditions at: YHID (HORN ISLAND , AU) observed 2159 UTC 01 December 2022
Temperature: 24.0°C (75°F)
Dewpoint: 24.0°C (75°F) [RH = 100%]
Pressure (altimeter): 29.68 inches Hg (1005.0 mb)
Winds: from the SW (230 degrees) at 6 MPH (5 knots; 2.6 m/s)
Visibility: 1.62 miles (2.61 km)
Ceiling: 1100 feet AGL
Clouds: scattered clouds at 600 feet AGL
broken clouds at 1100 feet AGL
overcast cloud deck at 1700 feet AGL
Weather: RA  (moderate rain)

Forecast for: AMD
Text: TAF AMD YHID 012159Z 0121/0218 31010KT 9000 -SHRA SCT008 BKN025
Forecast period: 2100 to 2300 UTC 01 December 2022
Forecast type: FROM: standard forecast or significant change
Winds: from the NW (310 degrees) at 12 MPH (10 knots; 5.1 m/s)
Visibility: 6 miles (9 km)
Ceiling: 2500 feet AGL
Clouds: scattered clouds at 800 feet AGL
broken clouds at 2500 feet AGL
Weather: -SHRA  (light rain showers)
Text: FM012300 32017KT 9999 -SHRA SCT020
Forecast period: 2300 UTC 01 December 2022 to 0800 UTC 02 December 2022
Forecast type: FROM: standard forecast or significant change
Winds: from the NW (320 degrees) at 20 MPH (17 knots; 8.7 m/s)
Visibility: 6 or more miles (10+ km)
Ceiling: at least 12,000 feet AGL
Clouds: scattered clouds at 2000 feet AGL
Weather: -SHRA  (light rain showers)
Text: FM020800 30007KT 9999 -SHRA SCT016
Forecast period: 0800 to 1800 UTC 02 December 2022
Forecast type: FROM: standard forecast or significant change
Winds: from the WNW (300 degrees) at 8 MPH (7 knots; 3.6 m/s)
Visibility: 6 or more miles (10+ km)
Ceiling: at least 12,000 feet AGL
Clouds: scattered clouds at 1600 feet AGL
Weather: -SHRA  (light rain showers)
Text: TEMPO 0121/0203 VRB25G40KT 0500 +TSRA BKN008 SCT020CB INTER 0121/0218 31020G30KT 1000 +SHRA BKN010 SCT020TCU
Forecast period: 2100 UTC 01 December 2022 to 0300 UTC 02 December 2022
Forecast type: TEMPORARY: The following changes expected for less than half the time period
Winds: variable direction winds at 29 MPH (25 knots; 12.9 m/s)
gusting to 46 MPH (40 knots; 20.6 m/s)
Visibility: 0.31 miles (0.50 km)
Ceiling: 800 feet AGL
Clouds: broken clouds at 800 feet AGL
scattered clouds at 2000 feet AGL
Weather: +TSRA  (heavy rain associated with thunderstorm(s))
Text: PROB30
Forecast period: 2100 UTC 01 December 2022 to 1800 UTC 02 December 2022
Forecast type: TEMPORARY: The following changes expected for less than half the time period
Winds: from the NW (310 degrees) at 23 MPH (20 knots; 10.3 m/s)
gusting to 34 MPH (30 knots; 15.4 m/s)
Visibility: 0.62 miles (1.00 km)
Ceiling: 1000 feet AGL
Clouds: broken clouds at 1000 feet AGL
scattered clouds at 2000 feet AGL
Weather: +SHRA  (heavy rain showers)
Text: TEMPO 0203/0218 VRB25G40KT 0500 +TSRA BKN008 SCT020CB
Forecast period: 0300 to 1800 UTC 02 December 2022
Forecast type: TEMPORARY: The following changes expected for less than half the time period
Winds: variable direction winds at 29 MPH (25 knots; 12.9 m/s)
gusting to 46 MPH (40 knots; 20.6 m/s)
Visibility: 0.31 miles (0.50 km)
Ceiling: 800 feet AGL
Clouds: broken clouds at 800 feet AGL
scattered clouds at 2000 feet AGL
Weather: +TSRA  (heavy rain associated with thunderstorm(s))